^^
Lisbon, NH - Weather Station Historical Data
Daily Summary for April 27, 2021 Units:  English    Metric   Both
Daily Weekly Monthly Yearly
  High: Low: Average:
Temperature: 61.7 °F 22.1 °F 42.4 °F
Dew Point: 28.4 °F 9.2 °F 19.4 °F
Humidity: 98% 12.6% 52%
Wind Speed: 6.4mph 0mph 1.1mph
Wind Gust: 14mph - -
Wind- - SSE
Pressure: 30.04 in 29.85 in -
Precipitation: 0.00 in    
 
 
Tabular Data for April 27, 2021
Time Temperature Dew Point Pressure Wind Wind Speed Wind Gust Humidity Rainfall Rate (Hourly) solar
00:04 27 °F 23.6 °F 30.01 in Calm   1 mph 87% 0.00 in 0 W/m2
00:09 26.9 °F 23.6 °F 30.01 in Calm     87% 0.00 in 0 W/m2
00:14 26.7 °F 23.6 °F 30.02 in North 0.1 mph 1 mph 87.7% 0.00 in 0 W/m2
00:19 26.7 °F 23.6 °F 30.02 in Calm   1 mph 88% 0.00 in 0 W/m2
00:24 26.7 °F 23.6 °F 30.02 in North 0.1 mph 1 mph 88% 0.00 in 0 W/m2
00:29 26.6 °F 23.5 °F 30.02 in North 0.1 mph 1 mph 88% 0.00 in 0 W/m2
00:34 26.5 °F 23.4 °F 30.01 in NNE 0.1 mph 1 mph 88% 0.00 in 0 W/m2
00:39 26.4 °F 23.5 °F 30.01 in NNE 0.7 mph 3 mph 88.7% 0.00 in 0 W/m2
00:44 26.3 °F 23.5 °F 30.01 in NNE 0.3 mph 3 mph 89% 0.00 in 0 W/m2
00:49 26.3 °F 23.5 °F 30.00 in NE 0.2 mph 2 mph 89% 0.00 in 0 W/m2
00:54 26.1 °F 23.5 °F 30.00 in Calm     89.5% 0.00 in 0 W/m2
00:59 26.1 °F 23.6 °F 30.00 in Calm     90% 0.00 in 0 W/m2
01:04 26 °F 23.5 °F 30.00 in NNE 0.1 mph 1 mph 90% 0.00 in 0 W/m2
01:09 25.9 °F 23.4 °F 30.00 in Calm   1 mph 90% 0.00 in 0 W/m2
01:14 25.8 °F 23.3 °F 30.00 in Calm     90% 0.00 in 0 W/m2
01:19 25.7 °F 23.3 °F 29.99 in Calm     90.4% 0.00 in 0 W/m2
01:24 25.7 °F 23.4 °F 29.99 in Calm     91% 0.00 in 0 W/m2
01:29 25.5 °F 23.3 °F 29.99 in Calm     91% 0.00 in 0 W/m2
01:34 25.5 °F 23.2 °F 29.99 in Calm     91% 0.00 in 0 W/m2
01:39 25.4 °F 23.1 °F 29.99 in Calm     91% 0.00 in 0 W/m2
01:44 25.4 °F 23.1 °F 29.99 in Calm     91% 0.00 in 0 W/m2
01:49 25.2 °F 23 °F 29.99 in Calm     91.2% 0.00 in 0 W/m2
01:54 25.2 °F 23.2 °F 29.99 in Calm     91.9% 0.00 in 0 W/m2
01:59 25.2 °F 23.2 °F 29.99 in Calm     92% 0.00 in 0 W/m2
02:04 25.1 °F 23.1 °F 29.99 in Calm     92% 0.00 in 0 W/m2
02:09 25.1 °F 23.1 °F 29.99 in Calm     92% 0.00 in 0 W/m2
02:14 25 °F 23 °F 29.99 in Calm     92% 0.00 in 0 W/m2
02:19 24.9 °F 22.9 °F 29.99 in Calm     92% 0.00 in 0 W/m2
02:24 24.8 °F 22.8 °F 29.99 in Calm     92% 0.00 in 0 W/m2
02:29 24.6 °F 22.7 °F 29.99 in Calm     92.4% 0.00 in 0 W/m2
02:34 24.5 °F 22.8 °F 29.99 in Calm     93% 0.00 in 0 W/m2
02:39 24.5 °F 22.8 °F 29.99 in Calm     93% 0.00 in 0 W/m2
02:44 24.4 °F 22.6 °F 30.00 in Calm     93% 0.00 in 0 W/m2
02:49 24.3 °F 22.6 °F 30.00 in Calm     93% 0.00 in 0 W/m2
02:54 24.3 °F 22.5 °F 30.00 in Calm     93% 0.00 in 0 W/m2
02:59 24.2 °F 22.5 °F 30.00 in Calm     93% 0.00 in 0 W/m2
03:04 24.2 °F 22.5 °F 30.00 in Calm     93% 0.00 in 0 W/m2
03:09 24.1 °F 22.4 °F 30.00 in Calm     93% 0.00 in 0 W/m2
03:14 24.1 °F 22.4 °F 30.02 in Calm     93.4% 0.00 in 0 W/m2
03:19 23.9 °F 22.4 °F 30.02 in Calm     94% 0.00 in 0 W/m2
03:24 23.9 °F 22.4 °F 30.02 in Calm     94% 0.00 in 0 W/m2
03:29 23.8 °F 22.3 °F 30.02 in Calm     94% 0.00 in 0 W/m2
03:34 23.8 °F 22.3 °F 30.02 in Calm     94% 0.00 in 0 W/m2
03:39 23.6 °F 22.2 °F 30.02 in Calm     94% 0.00 in 0 W/m2
03:44 23.6 °F 22.1 °F 30.02 in Calm     94% 0.00 in 0 W/m2
03:49 23.5 °F 22.1 °F 30.02 in Calm     94% 0.00 in 0 W/m2
03:54 23.5 °F 22 °F 30.02 in Calm     94% 0.00 in 0 W/m2
03:59 23.3 °F 21.8 °F 30.02 in Calm     94% 0.00 in 0 W/m2
04:04 23.2 °F 21.7 °F 30.02 in Calm     94% 0.00 in 0 W/m2
04:09 23.2 °F 21.8 °F 30.02 in Calm     94.4% 0.00 in 0 W/m2
04:14 23.2 °F 22 °F 30.02 in Calm     95% 0.00 in 0 W/m2
04:19 23.1 °F 21.9 °F 30.02 in Calm     95% 0.00 in 0 W/m2
04:24 23 °F 21.8 °F 30.02 in Calm     95% 0.00 in 0 W/m2
04:29 23 °F 21.8 °F 30.02 in Calm     95% 0.00 in 0 W/m2
04:34 23 °F 21.8 °F 30.01 in Calm     95% 0.00 in 0 W/m2
04:39 22.9 °F 21.7 °F 30.01 in Calm     95% 0.00 in 0 W/m2
04:44 22.9 °F 21.7 °F 30.01 in Calm     95% 0.00 in 0 W/m2
04:49 22.9 °F 21.7 °F 30.01 in Calm     95% 0.00 in 0 W/m2
04:54 22.9 °F 21.7 °F 30.01 in Calm     95.2% 0.00 in 0 W/m2
04:59 22.8 °F 21.6 °F 30.02 in Calm     95.2% 0.00 in 0 W/m2
05:04 22.7 °F 21.7 °F 30.02 in Calm   1 mph 96% 0.00 in 0 W/m2
05:09 22.7 °F 21.7 °F 30.02 in Calm   1 mph 96% 0.00 in 0 W/m2
05:14 22.6 °F 21.6 °F 30.02 in Calm   1 mph 96% 0.00 in 0 W/m2
05:19 22.5 °F 21.5 °F 30.01 in Calm     96% 0.00 in 0 W/m2
05:24 22.4 °F 21.4 °F 30.01 in Calm     96% 0.00 in 0 W/m2
05:29 22.3 °F 21.3 °F 30.02 in Calm     96% 0.00 in 0 W/m2
05:34 22.3 °F 21.3 °F 30.02 in Calm   1 mph 96% 0.00 in 5 W/m2
05:39 22.1 °F 21.2 °F 30.02 in Calm     96% 0.00 in 7 W/m2
05:44 22.1 °F 21.1 °F 30.02 in Calm     96% 0.00 in 12 W/m2
05:49 22.1 °F 21.1 °F 30.02 in Calm     96% 0.00 in 12 W/m2
05:54 22.1 °F 21.1 °F 30.02 in Calm     96% 0.00 in 18 W/m2
05:59 22.1 °F 21.3 °F 30.04 in Calm     96.5% 0.00 in 25 W/m2
06:04 22.1 °F 21.4 °F 30.04 in Calm     97% 0.00 in 32 W/m2
06:09 22.1 °F 21.4 °F 30.04 in Calm     97% 0.00 in 40 W/m2
06:14 22.3 °F 21.5 °F 30.04 in Calm     97% 0.00 in 53 W/m2
06:19 22.4 °F 21.7 °F 30.04 in Calm     97% 0.00 in 62 W/m2
06:24 22.8 °F 22.2 °F 30.04 in Calm     97.2% 0.00 in 99 W/m2
06:29 23.3 °F 22.8 °F 30.04 in NNE 0.1 mph 1 mph 97.8% 0.00 in 113 W/m2
06:34 23.8 °F 23.3 °F 30.04 in Calm   1 mph 98% 0.00 in 155 W/m2
06:39 24.4 °F 24 °F 30.04 in ENE 0.3 mph 1 mph 98% 0.00 in 165 W/m2
06:44 24.9 °F 24.3 °F 30.04 in ENE 0.4 mph 1 mph 97.5% 0.00 in 187 W/m2
06:49 25.5 °F 24.9 °F 30.04 in ENE 0.3 mph 1 mph 97.4% 0.00 in 194 W/m2
06:54 26 °F 25.2 °F 30.04 in ENE 0.7 mph 2 mph 96.6% 0.00 in 181 W/m2
06:59 26 °F 24.8 °F 30.04 in ENE 1.3 mph 2 mph 95.2% 0.00 in 206 W/m2
07:04 26.2 °F 24.7 °F 30.04 in ENE 1 mph 3 mph 94.2% 0.00 in 222 W/m2
07:09 26.9 °F 25.4 °F 30.04 in ENE 1.4 mph 3 mph 94% 0.00 in 232 W/m2
07:14 27.5 °F 25.6 °F 30.04 in ENE 1.3 mph 3 mph 92.4% 0.00 in 243 W/m2
07:19 28.2 °F 25.8 °F 30.03 in ENE 2.1 mph 3 mph 90.7% 0.00 in 264 W/m2
07:24 28.6 °F 25.6 °F 30.03 in ENE 1 mph 2 mph 88.6% 0.00 in 283 W/m2
07:29 29.1 °F 26 °F 30.03 in ENE 0.8 mph 2 mph 88.2% 0.00 in 301 W/m2
07:34 29.8 °F 26.3 °F 30.03 in ENE 0.1 mph 1 mph 86.6% 0.00 in 292 W/m2
07:39 30.4 °F 26.4 °F 30.03 in ENE 0.2 mph 2 mph 84.8% 0.00 in 313 W/m2
07:44 30.7 °F 26.2 °F 30.03 in East 0.3 mph 2 mph 83.2% 0.00 in 354 W/m2
07:49 31 °F 26.3 °F 30.02 in East 0.6 mph 2 mph 82.3% 0.00 in 361 W/m2
07:54 31.5 °F 26.4 °F 30.02 in East 0.5 mph 2 mph 81.3% 0.00 in 382 W/m2
07:59 32.1 °F 26.7 °F 30.02 in East 0.9 mph 2 mph 80.1% 0.00 in 396 W/m2
08:04 32.5 °F 26.6 °F 30.01 in East 0.9 mph 2 mph 78.8% 0.00 in 422 W/m2
08:09 32.9 °F 27.1 °F 30.01 in East 0.9 mph 2 mph 78.9% 0.00 in 433 W/m2
08:14 33.4 °F 27.5 °F 30.01 in ENE 2.2 mph 5 mph 78.7% 0.00 in 442 W/m2
08:19 34.5 °F 28.2 °F 30.01 in East 1.1 mph 3 mph 77.8% 0.00 in 461 W/m2
08:24 35.3 °F 28.4 °F 30.01 in East 1.4 mph 3 mph 75.6% 0.00 in 475 W/m2
08:29 36 °F 28.4 °F 30.01 in South 0.6 mph 3 mph 73.6% 0.00 in 494 W/m2
08:34 37.3 °F 28.4 °F 30.01 in East 0.8 mph 3 mph 69.9% 0.00 in 507 W/m2
08:39 39.2 °F 26.7 °F 30.01 in ESE 1.8 mph 6 mph 60.6% 0.00 in 523 W/m2
08:44 40.8 °F 23.3 °F 30.01 in NNW 1.4 mph 6 mph 49.4% 0.00 in 542 W/m2
08:49 42.3 °F 20 °F 30.00 in ENE 2.5 mph 6 mph 40.6% 0.00 in 554 W/m2
08:54 43.4 °F 19.7 °F 30.00 in East 1.8 mph 6 mph 38.3% 0.00 in 570 W/m2
08:59 44 °F 18.6 °F 30.00 in East 2.2 mph 10 mph 35.8% 0.00 in 584 W/m2
09:04 44.6 °F 17.6 °F 29.99 in North 2.9 mph 10 mph 33.5% 0.00 in 604 W/m2
09:09 44.9 °F 17.8 °F 29.99 in SW 2.1 mph 8 mph 33.4% 0.00 in 616 W/m2
09:14 44.9 °F 16.6 °F 29.99 in NNE 2.1 mph 7 mph 31.7% 0.00 in 628 W/m2
09:19 45.2 °F 16.9 °F 29.99 in SSE 1 mph 3 mph 31.8% 0.00 in 646 W/m2
09:24 45.9 °F 17.5 °F 29.99 in WNW 1.2 mph 5 mph 31.6% 0.00 in 662 W/m2
09:29 46.7 °F 16.1 °F 29.99 in ENE 2.9 mph 8 mph 29% 0.00 in 674 W/m2
09:34 47 °F 16.8 °F 29.98 in NNE 2.7 mph 7 mph 29.5% 0.00 in 683 W/m2
09:39 47.3 °F 15.8 °F 29.98 in NNE 2 mph 7 mph 28% 0.00 in 695 W/m2
09:44 47.4 °F 16.1 °F 29.98 in East 1.9 mph 6 mph 28.2% 0.00 in 711 W/m2
09:49 47.7 °F 16.1 °F 29.98 in ESE 1.8 mph 8 mph 27.9% 0.00 in 732 W/m2
09:54 47.7 °F 16.2 °F 29.98 in ENE 2.9 mph 8 mph 28% 0.00 in 744 W/m2
09:59 48 °F 16.4 °F 29.98 in ESE 2.4 mph 7 mph 28% 0.00 in 751 W/m2
10:04 48.4 °F 16.2 °F 29.97 in NNE 2.9 mph 10 mph 27.3% 0.00 in 764 W/m2
10:09 49 °F 16.5 °F 29.97 in NE 3.4 mph 7 mph 27.1% 0.00 in 801 W/m2
10:14 48.9 °F 15.9 °F 29.97 in WNW 2 mph 8 mph 26.4% 0.00 in 804 W/m2
10:19 49 °F 15.7 °F 29.97 in North 3 mph 7 mph 26.1% 0.00 in 811 W/m2
10:24 49.2 °F 15.5 °F 29.97 in North 1.5 mph 5 mph 25.7% 0.00 in 827 W/m2
10:29 49.9 °F 15 °F 29.97 in North 1.7 mph 6 mph 24.5% 0.00 in 829 W/m2
10:34 50.4 °F 16.1 °F 29.96 in West 3.7 mph 8 mph 25.2% 0.00 in 845 W/m2
10:39 50.6 °F 15 °F 29.96 in North 2.9 mph 8 mph 23.9% 0.00 in 825 W/m2
10:44 50.8 °F 16 °F 29.96 in NNW 2 mph 5 mph 24.8% 0.00 in 823 W/m2
10:49 51.2 °F 15.3 °F 29.96 in NNE 1.9 mph 5 mph 23.7% 0.00 in 850 W/m2
10:54 51 °F 15.9 °F 29.96 in ESE 1.5 mph 5 mph 24.5% 0.00 in 862 W/m2
10:59 51.6 °F 15.6 °F 29.96 in ENE 2.2 mph 5 mph 23.6% 0.00 in 801 W/m2
11:04 51.6 °F 13.3 °F 29.95 in SSE 4.5 mph 10 mph 21.4% 0.00 in 781 W/m2
11:09 51.4 °F 12.7 °F 29.95 in NNW 2.7 mph 10 mph 21% 0.00 in 788 W/m2
11:14 51.8 °F 12.5 °F 29.95 in West 2.4 mph 8 mph 20.4% 0.00 in 755 W/m2
11:19 52.4 °F 13 °F 29.94 in WSW 3.5 mph 10 mph 20.4% 0.00 in 706 W/m2
11:24 52.9 °F 14.8 °F 29.94 in NNW 3 mph 8 mph 21.7% 0.00 in 699 W/m2
11:29 53.3 °F 11.6 °F 29.94 in NNW 2.5 mph 8 mph 18.6% 0.00 in 711 W/m2
11:34 53.2 °F 12.5 °F 29.94 in WSW 3.3 mph 8 mph 19.4% 0.00 in 674 W/m2
11:39 52.8 °F 11.5 °F 29.94 in NE 3.1 mph 7 mph 18.9% 0.00 in 649 W/m2
11:44 52.8 °F 12.3 °F 29.94 in WNW 3.8 mph 8 mph 19.5% 0.00 in 693 W/m2
11:49 52.9 °F 12.3 °F 29.94 in NE 3 mph 7 mph 19.5% 0.00 in 743 W/m2
11:54 53.5 °F 13.3 °F 29.94 in NE 3.4 mph 7 mph 19.9% 0.00 in 751 W/m2
11:59 53.8 °F 11.9 °F 29.94 in ESE 2.4 mph 6 mph 18.4% 0.00 in 808 W/m2
12:04 54.2 °F 13.9 °F 29.93 in ENE 2.8 mph 10 mph 19.9% 0.00 in 808 W/m2
12:09 54.7 °F 12.3 °F 29.93 in ENE 1.7 mph 5 mph 18.2% 0.00 in 885 W/m2
12:14 54.9 °F 15.2 °F 29.93 in SE 2.9 mph 7 mph 20.6% 0.00 in 945 W/m2
12:19 55.5 °F 12.3 °F 29.93 in WNW 5.9 mph 14 mph 17.8% 0.00 in 952 W/m2
12:24 55 °F 10.5 °F 29.93 in NE 3.8 mph 11 mph 16.6% 0.00 in 943 W/m2
12:29 54.8 °F 11.6 °F 29.93 in WNW 3.7 mph 11 mph 17.6% 0.00 in 945 W/m2
12:34 55.2 °F 12.5 °F 29.93 in NW 2 mph 8 mph 18.1% 0.00 in 945 W/m2
12:39 55.5 °F 11.7 °F 29.93 in WNW 3.6 mph 10 mph 17.2% 0.00 in 957 W/m2
12:44 55.7 °F 13.5 °F 29.93 in NNW 3.6 mph 11 mph 18.5% 0.00 in 957 W/m2
12:49 56.2 °F 15.3 °F 29.92 in ENE 3.3 mph 11 mph 19.8% 0.00 in 971 W/m2
12:54 56 °F 13.8 °F 29.92 in NE 2.8 mph 9 mph 18.5% 0.00 in 955 W/m2
12:59 56.6 °F 13.6 °F 29.92 in ENE 4.9 mph 11 mph 18% 0.00 in 943 W/m2
13:04 57.5 °F 14.4 °F 29.91 in NNW 3.2 mph 9 mph 18.2% 0.00 in 945 W/m2
13:09 57.5 °F 13.5 °F 29.91 in NE 2.2 mph 5 mph 17.4% 0.00 in 948 W/m2
13:14 57.9 °F 14.4 °F 29.91 in NNW 2.3 mph 7 mph 17.9% 0.00 in 941 W/m2
13:19 58.1 °F 13.2 °F 29.91 in North 2 mph 7 mph 16.8% 0.00 in 948 W/m2
13:24 58 °F 14.7 °F 29.91 in NE 2.6 mph 7 mph 18% 0.00 in 954 W/m2
13:29 57.8 °F 13.6 °F 29.91 in ENE 6.4 mph 12 mph 17.2% 0.00 in 948 W/m2
13:34 58 °F 14.6 °F 29.90 in ENE 4.3 mph 14 mph 18% 0.00 in 966 W/m2
13:39 57.7 °F 13.9 °F 29.90 in SSE 2.4 mph 7 mph 17.5% 0.00 in 987 W/m2
13:44 57.6 °F 12.8 °F 29.90 in NW 2.2 mph 8 mph 16.7% 0.00 in 975 W/m2
13:49 58.1 °F 14.9 °F 29.90 in NNE 1.8 mph 6 mph 18.1% 0.00 in 973 W/m2
13:54 58.7 °F 13.7 °F 29.90 in NNW 2.5 mph 6 mph 16.8% 0.00 in 970 W/m2
13:59 58.8 °F 12.5 °F 29.90 in WSW 2.2 mph 6 mph 15.8% 0.00 in 901 W/m2
14:04 58.4 °F 11.9 °F 29.89 in NW 2.3 mph 7 mph 15.6% 0.00 in 901 W/m2
14:09 58.1 °F 10.9 °F 29.89 in East 2 mph 5 mph 15.2% 0.00 in 737 W/m2
14:14 57.1 °F 10.2 °F 29.89 in ESE 1.1 mph 6 mph 15.2% 0.00 in 524 W/m2
14:19 57 °F 10.9 °F 29.88 in South 0.6 mph 3 mph 15.7% 0.00 in 591 W/m2
14:24 57.2 °F 9.3 °F 29.88 in ESE 1.8 mph 3 mph 14.6% 0.00 in 873 W/m2
14:29 57.8 °F 13.2 °F 29.88 in ENE 3.4 mph 7 mph 17% 0.00 in 866 W/m2
14:34 58.9 °F 12.3 °F 29.87 in West 2.4 mph 7 mph 15.7% 0.00 in 836 W/m2
14:39 59.6 °F 10.2 °F 29.87 in NW 2.3 mph 8 mph 13.9% 0.00 in 765 W/m2
14:44 59.7 °F 10.4 °F 29.87 in NW 3.5 mph 11 mph 13.9% 0.00 in 809 W/m2
14:49 59.6 °F 9.7 °F 29.87 in WNW 2.1 mph 11 mph 13.6% 0.00 in 769 W/m2
14:54 59.7 °F 11.1 °F 29.87 in NW 2 mph 8 mph 14.4% 0.00 in 771 W/m2
14:59 60.1 °F 11.4 °F 29.87 in WSW 2 mph 8 mph 14.4% 0.00 in 772 W/m2
15:04 60.7 °F 12.4 °F 29.85 in WNW 1.5 mph 5 mph 14.7% 0.00 in 691 W/m2
15:09 61.1 °F 12.4 °F 29.85 in NW 1 mph 5 mph 14.5% 0.00 in 561 W/m2
15:14 61.2 °F 12.5 °F 29.85 in NE 1.9 mph 7 mph 14.6% 0.00 in 368 W/m2
15:19 60.4 °F 11.8 °F 29.85 in SSW 2.1 mph 7 mph 14.5% 0.00 in 375 W/m2
15:24 60.5 °F 13.2 °F 29.85 in NW 2.9 mph 6 mph 15.4% 0.00 in 362 W/m2
15:29 60.4 °F 11.5 °F 29.85 in WNW 2.6 mph 10 mph 14.3% 0.00 in 394 W/m2
15:34 59.9 °F 11.7 °F 29.85 in West 4.5 mph 10 mph 14.7% 0.00 in 443 W/m2
15:39 60.1 °F 13.1 °F 29.85 in SW 1.9 mph 10 mph 15.5% 0.00 in 468 W/m2
15:44 60.5 °F 12.5 °F 29.85 in WSW 3.7 mph 12 mph 14.9% 0.00 in 579 W/m2
15:49 60.8 °F 13.4 °F 29.85 in NW 2.5 mph 7 mph 15.4% 0.00 in 484 W/m2
15:54 60.8 °F 15 °F 29.85 in West 0.8 mph 4 mph 16.4% 0.00 in 514 W/m2
15:59 60.9 °F 12.2 °F 29.85 in SSW 1.8 mph 8 mph 14.5% 0.00 in 514 W/m2
16:04 61.1 °F 11.3 °F 29.85 in NW 3.7 mph 8 mph 13.9% 0.00 in 482 W/m2
16:09 61.2 °F 9.2 °F 29.85 in West 4.5 mph 11 mph 12.6% 0.00 in 348 W/m2
16:14 61.1 °F 9.3 °F 29.85 in West 1.3 mph 6 mph 12.6% 0.00 in 348 W/m2
16:19 61.3 °F 10.1 °F 29.85 in WSW 1.3 mph 4 mph 13.1% 0.00 in 146 W/m2
16:24 61.6 °F 11.4 °F 29.85 in West 1.4 mph 3 mph 13.7% 0.00 in 146 W/m2
16:29 61.5 °F 10.1 °F 29.85 in West 2.6 mph 7 mph 12.9% 0.00 in 72 W/m2
16:34 61.4 °F 10.2 °F 29.85 in WSW 0.4 mph 4 mph 13% 0.00 in 465 W/m2
16:39 61.4 °F 10.7 °F 29.85 in SE 1 mph 4 mph 13.3% 0.00 in 435 W/m2
16:44 61.6 °F 10.5 °F 29.85 in WNW 1.1 mph 6 mph 13.1% 0.00 in 324 W/m2
16:49 61.7 °F 10.5 °F 29.85 in WNW 1.2 mph 5 mph 13.1% 0.00 in 150 W/m2
16:54 61.5 °F 10 °F 29.85 in SSE 1 mph 5 mph 12.9% 0.00 in 206 W/m2
17:04 61.2 °F 11.2 °F 29.85 in North 3.9 mph 11 mph 13.7% 0.00 in 183 W/m2
17:09 61 °F 12.5 °F 29.85 in NE 3.1 mph 7 mph 14.6% 0.00 in 194 W/m2
17:14 60.8 °F 12.9 °F 29.85 in ENE 2.7 mph 7 mph 15% 0.00 in 178 W/m2
17:24 60.3 °F 10.6 °F 29.85 in NE 3.3 mph 8 mph 13.8% 0.00 in 199 W/m2
17:29 60.3 °F 11.2 °F 29.85 in NE 2.7 mph 7 mph 14.2% 0.00 in 230 W/m2
17:34 60.3 °F 11 °F 29.85 in NE 3 mph 7 mph 14.1% 0.00 in 230 W/m2
17:39 60.3 °F 10.1 °F 29.85 in NE 3.1 mph 7 mph 13.5% 0.00 in 194 W/m2
17:44 60.2 °F 11.3 °F 29.85 in NE 1.6 mph 7 mph 14.4% 0.00 in 227 W/m2
17:49 60.3 °F 11.3 °F 29.85 in NE 3.8 mph 7 mph 14.3% 0.00 in 187 W/m2
17:54 60.3 °F 10.9 °F 29.85 in NE 1.5 mph 7 mph 14% 0.00 in 195 W/m2
17:59 60.5 °F 9.4 °F 29.85 in NE 1.3 mph 8 mph 13% 0.00 in 190 W/m2
18:04 60.4 °F 11.9 °F 29.85 in NE 2 mph 6 mph 14.6% 0.00 in 132 W/m2
18:09 60.2 °F 12.1 °F 29.85 in NNE 0.8 mph 5 mph 14.8% 0.00 in 114 W/m2
18:14 60 °F 12.2 °F 29.86 in NE 2.5 mph 8 mph 15% 0.00 in 151 W/m2
18:19 59.6 °F 11.1 °F 29.86 in ENE 3.3 mph 8 mph 14.5% 0.00 in 51 W/m2
18:24 59.3 °F 13.1 °F 29.86 in NE 1.3 mph 5 mph 16% 0.00 in 33 W/m2
18:29 59 °F 13.2 °F 29.86 in ENE 0.4 mph 3 mph 16.2% 0.00 in 32 W/m2
18:34 58.9 °F 12.3 °F 29.86 in NE 1.5 mph 7 mph 15.6% 0.00 in 32 W/m2
18:39 58.8 °F 13.3 °F 29.86 in ENE 1.3 mph 6 mph 16.4% 0.00 in 30 W/m2
18:44 58.6 °F 13 °F 29.86 in NE 0.7 mph 5 mph 16.3% 0.00 in 30 W/m2
18:49 58.4 °F 13.5 °F 29.86 in NE 0.3 mph 2 mph 16.9% 0.00 in 30 W/m2
18:54 58.1 °F 12.5 °F 29.86 in Calm   1 mph 16.2% 0.00 in 28 W/m2
18:59 57.8 °F 14.5 °F 29.87 in NE 0.1 mph 1 mph 18% 0.00 in 25 W/m2
19:04 57.5 °F 14.5 °F 29.87 in NE 0.8 mph 2 mph 18.2% 0.00 in 21 W/m2
19:09 57.2 °F 14 °F 29.87 in NE 0.1 mph 2 mph 18% 0.00 in 18 W/m2
19:14 56.9 °F 16.9 °F 29.87 in North 0.2 mph 2 mph 20.6% 0.00 in 16 W/m2
19:19 56.4 °F 19.2 °F 29.87 in NNW 0.5 mph 2 mph 23.2% 0.00 in 14 W/m2
19:24 55.4 °F 22.7 °F 29.87 in NNW 1.5 mph 2 mph 27.9% 0.00 in 12 W/m2
19:29 54.1 °F 23.7 °F 29.88 in NNW 1.3 mph 2 mph 30.5% 0.00 in 11 W/m2
19:34 52.9 °F 24.2 °F 29.88 in NNW 0.7 mph 2 mph 32.5% 0.00 in 9 W/m2
19:39 52.1 °F 25.1 °F 29.88 in Calm   1 mph 34.7% 0.00 in 7 W/m2
19:44 51.4 °F 24.9 °F 29.88 in Calm     35.4% 0.00 in 5 W/m2
19:49 50.7 °F 25.4 °F 29.88 in NNW 0.1 mph 1 mph 37% 0.00 in 5 W/m2
19:54 50.1 °F 25.9 °F 29.88 in NNW 1 mph 2 mph 38.6% 0.00 in 0 W/m2
19:59 49.3 °F 26.5 °F 29.88 in NNW 0.4 mph 2 mph 40.8% 0.00 in 0 W/m2
20:04 48.7 °F 25.5 °F 29.88 in Calm   1 mph 40.2% 0.00 in 0 W/m2
20:09 48.1 °F 25.4 °F 29.88 in Calm   1 mph 40.7% 0.00 in 0 W/m2
20:14 47.7 °F 25.7 °F 29.88 in Calm     42% 0.00 in 0 W/m2
20:24 46.7 °F 26.4 °F 29.88 in Calm     44.8% 0.00 in 0 W/m2
20:29 46.4 °F 26.7 °F 29.89 in Calm     45.8% 0.00 in 0 W/m2
20:34 46.1 °F 26.3 °F 29.89 in NNW 0.2 mph 2 mph 45.7% 0.00 in 0 W/m2
20:39 45.7 °F 26.3 °F 29.89 in Calm     46.3% 0.00 in 0 W/m2
20:44 45.3 °F 26.2 °F 29.89 in Calm     46.9% 0.00 in 0 W/m2
20:49 44.9 °F 26.2 °F 29.89 in Calm     47.5% 0.00 in 0 W/m2
20:54 44.7 °F 26.1 °F 29.89 in Calm     47.8% 0.00 in 0 W/m2
20:59 44.4 °F 26.2 °F 29.90 in Calm     48.6% 0.00 in 0 W/m2
21:04 44 °F 26 °F 29.90 in NNW 0.5 mph 2 mph 48.8% 0.00 in 0 W/m2
21:09 43.6 °F 25.4 °F 29.90 in Calm     48.3% 0.00 in 0 W/m2
21:14 43.2 °F 25.3 °F 29.91 in Calm     48.9% 0.00 in 0 W/m2
21:19 42.9 °F 25.5 °F 29.91 in Calm     49.9% 0.00 in 0 W/m2
21:24 42.6 °F 25.6 °F 29.91 in Calm     50.5% 0.00 in 0 W/m2
21:29 42.4 °F 25.7 °F 29.91 in Calm     51.3% 0.00 in 0 W/m2
21:34 42.2 °F 25.9 °F 29.90 in Calm     52% 0.00 in 0 W/m2
21:39 42 °F 25.5 °F 29.90 in Calm     51.7% 0.00 in 0 W/m2
21:44 42 °F 26.4 °F 29.90 in Calm     53.6% 0.00 in 0 W/m2
21:49 41.9 °F 27.1 °F 29.90 in North 0.2 mph 1 mph 55.4% 0.00 in 0 W/m2
21:54 41.8 °F 26.6 °F 29.90 in Calm     54.5% 0.00 in 0 W/m2
21:59 41.6 °F 25.9 °F 29.91 in Calm     53.4% 0.00 in 0 W/m2
22:04 41.4 °F 26.1 °F 29.91 in Calm     54.2% 0.00 in 0 W/m2
22:09 41.3 °F 26.7 °F 29.91 in Calm     55.9% 0.00 in 0 W/m2
22:14 41.1 °F 26.5 °F 29.91 in North 0.8 mph 2 mph 55.6% 0.00 in 0 W/m2
22:19 40.8 °F 25.6 °F 29.90 in North 0.2 mph 2 mph 54.4% 0.00 in 0 W/m2
22:24 40.6 °F 25.7 °F 29.90 in Calm     55% 0.00 in 0 W/m2
22:29 40.4 °F 25.4 °F 29.91 in Calm     54.6% 0.00 in 0 W/m2
22:34 40.3 °F 25.3 °F 29.91 in Calm     54.6% 0.00 in 0 W/m2
22:39 40.2 °F 25.7 °F 29.91 in Calm     55.7% 0.00 in 0 W/m2
22:44 40.1 °F 26.6 °F 29.91 in Calm     58.3% 0.00 in 0 W/m2
22:49 39.9 °F 26.7 °F 29.91 in Calm     58.8% 0.00 in 0 W/m2
22:54 39.7 °F 26.5 °F 29.91 in Calm     58.9% 0.00 in 0 W/m2
22:59 39.4 °F 25.3 °F 29.92 in Calm     56.8% 0.00 in 0 W/m2
23:04 39.1 °F 25.1 °F 29.92 in Calm     56.8% 0.00 in 0 W/m2
23:14 38.9 °F 25.9 °F 29.92 in Calm     59.3% 0.00 in 0 W/m2
23:19 38.8 °F 25.7 °F 29.91 in Calm     59% 0.00 in 0 W/m2
23:24 38.7 °F 26.5 °F 29.91 in Calm     61.3% 0.00 in 0 W/m2
23:29 38.6 °F 27.4 °F 29.91 in Calm     63.7% 0.00 in 0 W/m2
23:34 38.4 °F 26.6 °F 29.91 in North 0.1 mph 1 mph 62.1% 0.00 in 0 W/m2
23:39 38.3 °F 26.5 °F 29.91 in NNE 0.4 mph 2 mph 62.1% 0.00 in 0 W/m2
23:49 38 °F 26.8 °F 29.91 in NNE 0.1 mph 1 mph 63.6% 0.00 in 0 W/m2
23:54 37.9 °F 26.4 °F 29.91 in Calm     63% 0.00 in 0 W/m2
23:59 37.7 °F 26.4 °F 29.91 in Calm     63.4% 0.00 in 0 W/m2
Lisbon, New Hampshire, USA
Compliments of Weather Underground - 4 mb